Ashby, Minnesota
Current Conditions -  °F | °C
As of 3:58 PM on Thursday 27 Nov 2014 (Local Time) from KY63 Reporting Station
Overcast Overcast  
Wind Chill: -12°   Ceiling: 10000
Heat Index:   Visibility: 7mi
Dew Point: -4°   Wind: 12mph
Humidity: 69%   Direction: 160°SSE
Pressure: 30.32"   Gusts: NA
Location:  46.09°N, 95.82°W
Report Text: KY63 272158Z AUTO 16010KT 7SM OVC100 M16/M20 A3032 RMK AO2 T11571202
Loading
Personal Weather Stations






























Interactive Weather Map New forecast layout! Learn more

10-Day Weather Forecast

Advertisements
Track Severe Weather on mobile